Accueil
METAR-TAF:

METAR-TAF

Aéroports :

Loreto, Mexique

latitude: 26-01N, longitude: 111-21W, altitude: 15 m

Observation

Le bulletin a été fait il y a 5 heures et 52 minutes, à 01:51 UTC
Vent 8 kt de nord
Température 20°C
Humidité 37%
Pression 1015 hPa
Visibilité: 16.1 km
Nuages épars à une hauteur de 24000 ft

METAR: MMLT 020151Z 36008KT 10SM SCT240 20/05 A2996 RMK 8/002

Heure: 00:43 (07:43 UTC)

Prévision

Le bulletin a été fait il y a 2 heures et 4 minutes, à 05:39 UTC
Prévision valable du 02 à 06 UTC au 03 à 06 UTC
Vent 8 kt de nord/nord-est
Visibilité: 10 km
Nuages épars à une hauteur de 24000 ft
A partir de 02 à 1800 UTC
Vent 15 kt de nord/nord-est
Visibilité: 10 km
Nuages épars à une hauteur de 24000 ft
A partir de 03 à 0300 UTC
Vent 5 kt de nord/nord-est
Visibilité: 10 km
Nuages épars à une hauteur de 25000 ft

TAF: MMLT 020539Z 0206/0306 02008KT P6SM SCT240 FM021800 03015KT P6SM SCT240 FM030300 02005KT P6SM SCT250

Observations et prévisions météorologiques de plus de 4000 aéroports (messages METAR et TAF).

Les stations disponibles sont représentées par des disques jaunes et rouges sur la carte.

Passer la souris dessus pour voir le nom de la station.

Cliquer dessus pour voir les observations et prévisions météorologiques.

Pour changer de carte: cliquez sur les boutons verts avec une croix noire pour zoomer, sur le bouton vert avec un tiret pour effectuer un zoom arrière, ou sur les flèches vertes pour les cartes adjacentes.


METAR-TAF: